Time;durP1;ratioP1;P1;durP2;ratioP2;P2;SDS_P1;SDS_P2;PMS_P1;PMS_P2;Temp;Humidity;BMP_temperature;BMP_pressure;BME280_temperature;BME280_humidity;BME280_pressure;Samples;Min_cycle;Max_cycle;Signal;HPM_P1;HPM_P2
2022/12/23 00:02:37;;;;;;;;;;;;;;;11.24;65.59;100807.31;5031920;28;20306;-78
2022/12/23 00:05:21;;;;;;;;;;;;;;;11.35;65.20;100803.19;5035027;28;19917;-81
2022/12/23 00:08:06;;;;;;;;;;;;;;;11.18;65.48;100806.66;5027681;28;19917;-79
2022/12/23 00:10:52;;;;;;;;;;;;;;;11.12;65.80;100797.06;5027112;28;20385;-77
2022/12/23 00:16:40;;;;;;;;;;;;;;;11.02;66.33;100773.63;5037317;28;19917;-80
2022/12/23 00:19:25;;;;;;;;;;;;;;;11.30;65.38;100773.38;5020485;28;19922;-78
2022/12/23 00:22:09;;;;;;;;;;;;;;;11.26;65.67;100780.59;5026077;28;19917;-81
2022/12/23 00:24:53;;;;;;;;;;;;;;;11.34;64.68;100775.16;5034574;28;19917;-80
2022/12/23 00:27:38;;;;;;;;;;;;;;;11.73;63.02;100766.06;5034468;28;19920;-80
2022/12/23 00:30:23;;;;;;;;;;;;;;;11.21;64.46;100781.53;5017446;28;19917;-79
2022/12/23 00:33:08;;;;;;;;;;;;;;;10.77;66.53;100792.63;5028835;28;19921;-78
2022/12/23 00:35:52;;;;;;;;;;;;;;;10.85;66.87;100783.69;5022814;28;19917;-81
2022/12/23 00:44:44;;;;;;;;;;;;;;;10.57;67.54;100789.31;5040734;28;19917;-80
2022/12/23 00:50:39;;;;;;;;;;;;;;;10.23;68.88;100800.81;5022522;28;19917;-79
2022/12/23 00:53:23;;;;;;;;;;;;;;;10.49;67.96;100819.19;5026137;28;19917;-80
2022/12/23 00:56:08;;;;;;;;;;;;;;;11.02;65.78;100817.19;5020464;28;19921;-81
2022/12/23 00:58:52;;;;;;;;;;;;;;;11.03;65.97;100823.41;5021113;28;19921;-81
2022/12/23 01:07:43;;;;;;;;;;;;;;;10.82;66.99;100808.81;5024060;28;20385;-79
2022/12/23 01:10:27;;;;;;;;;;;;;;;10.71;66.79;100808.28;5033708;28;19921;-81
2022/12/23 01:13:12;;;;;;;;;;;;;;;10.32;68.53;100821.81;5021298;28;19917;-80
2022/12/23 01:16:00;;;;;;;;;;;;;;;9.86;69.65;100817.47;5033501;28;19917;-78
2022/12/23 01:18:45;;;;;;;;;;;;;;;10.26;69.03;100827.38;5033406;28;19920;-80
2022/12/23 01:21:29;;;;;;;;;;;;;;;10.67;67.27;100831.75;5034199;28;19917;-78
2022/12/23 01:24:13;;;;;;;;;;;;;;;10.79;66.95;100809.41;5037619;28;19917;-78
2022/12/23 01:26:58;;;;;;;;;;;;;;;11.07;65.63;100803.44;5022166;28;19929;-78
2022/12/23 01:29:42;;;;;;;;;;;;;;;11.12;65.45;100827.78;5020248;28;19917;-80
2022/12/23 01:32:27;;;;;;;;;;;;;;;11.27;64.75;100823.84;5018632;28;19917;-80
2022/12/23 01:35:11;;;;;;;;;;;;;;;10.83;66.05;100807.66;5020982;28;19917;-80
2022/12/23 01:37:55;;;;;;;;;;;;;;;10.08;69.42;100825.63;5021111;28;19918;-80
2022/12/23 01:40:41;;;;;;;;;;;;;;;10.23;69.27;100817.13;5018870;28;19916;-78
2022/12/23 01:43:46;;;;;;;;;;;;;;;10.44;68.43;100789.44;5036486;28;19968;-78
2022/12/23 01:46:30;;;;;;;;;;;;;;;10.14;69.44;100794.50;5033427;28;19917;-78
2022/12/23 01:49:15;;;;;;;;;;;;;;;10.40;69.04;100783.00;5021860;28;19921;-79
2022/12/23 01:51:59;;;;;;;;;;;;;;;10.24;69.11;100796.19;5052721;28;19916;-78
2022/12/23 01:54:44;;;;;;;;;;;;;;;10.54;68.09;100795.41;5053521;28;19917;-79
2022/12/23 01:57:29;;;;;;;;;;;;;;;10.87;67.05;100814.09;5017741;28;19921;-80
2022/12/23 02:09:27;;;;;;;;;;;;;;;10.94;65.66;100809.81;5019396;28;19917;-78
2022/12/23 02:12:30;;;;;;;;;;;;;;;10.59;66.91;100802.63;5023204;28;20382;-78
2022/12/23 02:18:43;;;;;;;;;;;;;;;10.47;67.52;100794.22;5030987;28;19921;-80
2022/12/23 02:21:37;;;;;;;;;;;;;;;10.86;66.01;100796.97;5020337;28;19917;-80
2022/12/23 02:24:47;;;;;;;;;;;;;;;10.70;66.98;100798.50;5032313;28;19917;-78
2022/12/23 02:27:39;;;;;;;;;;;;;;;10.75;66.47;100790.22;5035066;28;20318;-78
2022/12/23 02:30:26;;;;;;;;;;;;;;;10.66;66.93;100783.94;5032123;28;19917;-80
2022/12/23 02:33:19;;;;;;;;;;;;;;;10.63;66.96;100779.91;5031791;28;19917;-79
2022/12/23 02:36:10;;;;;;;;;;;;;;;10.76;66.79;100775.50;5031972;28;19921;-80
2022/12/23 02:38:58;;;;;;;;;;;;;;;11.00;65.29;100775.91;5017303;28;20549;-80
2022/12/23 02:41:43;;;;;;;;;;;;;;;10.89;65.83;100766.41;5021209;28;19921;-78
2022/12/23 02:44:36;;;;;;;;;;;;;;;10.81;65.67;100767.19;5019667;28;19917;-78
2022/12/23 02:47:25;;;;;;;;;;;;;;;10.01;68.61;100768.19;5017694;28;19917;-78
2022/12/23 02:50:14;;;;;;;;;;;;;;;9.88;69.64;100763.66;5021393;28;19917;-78
2022/12/23 02:53:03;;;;;;;;;;;;;;;10.50;68.02;100763.72;5031654;28;19925;-78
2022/12/23 02:55:49;;;;;;;;;;;;;;;10.68;67.06;100757.22;5031858;28;19917;-78
2022/12/23 02:58:37;;;;;;;;;;;;;;;10.80;66.57;100759.34;5030716;28;19921;-78
2022/12/23 03:01:23;;;;;;;;;;;;;;;10.92;66.02;100775.88;5032394;28;19917;-79
2022/12/23 03:04:07;;;;;;;;;;;;;;;10.79;66.69;100774.88;5017767;28;19917;-79
2022/12/23 03:06:53;;;;;;;;;;;;;;;10.53;67.62;100766.59;5025126;28;20389;-78
2022/12/23 03:09:41;;;;;;;;;;;;;;;10.49;67.67;100753.94;5022916;28;19917;-77
2022/12/23 03:12:44;;;;;;;;;;;;;;;10.27;68.65;100747.44;5021863;28;19917;-80
2022/12/23 03:15:50;;;;;;;;;;;;;;;10.14;69.36;100745.59;5022980;28;19921;-78
2022/12/23 03:18:37;;;;;;;;;;;;;;;10.28;69.15;100759.13;5020527;28;19921;-77
2022/12/23 03:21:22;;;;;;;;;;;;;;;10.36;68.71;100761.09;5034213;28;20303;-77
2022/12/23 03:24:16;;;;;;;;;;;;;;;10.57;67.88;100774.94;5035373;28;19917;-79
2022/12/23 03:27:10;;;;;;;;;;;;;;;10.54;68.08;100760.06;5035441;28;19917;-79
2022/12/23 03:30:15;;;;;;;;;;;;;;;10.50;68.61;100759.09;5037696;28;20397;-80
2022/12/23 03:32:59;;;;;;;;;;;;;;;10.39;68.46;100749.59;5035488;28;19917;-78
2022/12/23 03:35:46;;;;;;;;;;;;;;;10.51;68.18;100755.25;5035240;28;19917;-80
2022/12/23 03:38:32;;;;;;;;;;;;;;;10.19;69.09;100752.84;5035371;28;19921;-78
2022/12/23 03:41:21;;;;;;;;;;;;;;;10.39;68.66;100743.34;5021935;28;20325;-80
2022/12/23 03:44:09;;;;;;;;;;;;;;;10.34;68.49;100725.28;5030467;28;19917;-82
2022/12/23 03:46:57;;;;;;;;;;;;;;;10.21;68.98;100728.88;5038120;28;19918;-81
2022/12/23 03:49:46;;;;;;;;;;;;;;;10.21;69.13;100743.25;5036239;28;19917;-80
2022/12/23 03:52:39;;;;;;;;;;;;;;;10.16;69.36;100748.81;5028041;28;19917;-79
2022/12/23 03:55:26;;;;;;;;;;;;;;;10.13;69.57;100746.72;5034760;28;19917;-80
2022/12/23 03:58:34;;;;;;;;;;;;;;;10.31;68.96;100746.84;5028846;28;20298;-80
2022/12/23 04:01:18;;;;;;;;;;;;;;;10.31;68.86;100752.28;5020587;28;19921;-80
2022/12/23 04:04:10;;;;;;;;;;;;;;;10.46;68.13;100749.16;5021585;28;19917;-78
2022/12/23 04:06:56;;;;;;;;;;;;;;;10.16;69.26;100721.66;5014944;28;20287;-78
2022/12/23 04:09:41;;;;;;;;;;;;;;;10.29;69.11;100728.13;5036834;28;19917;-79
2022/12/23 04:12:26;;;;;;;;;;;;;;;10.39;68.09;100727.84;5018151;28;19917;-77
2022/12/23 04:15:11;;;;;;;;;;;;;;;10.61;66.48;100735.13;5034517;28;19918;-80
2022/12/23 04:17:56;;;;;;;;;;;;;;;10.37;67.18;100738.22;5018456;28;19917;-79
2022/12/23 04:20:41;;;;;;;;;;;;;;;10.29;66.54;100734.38;5029979;28;19921;-81
2022/12/23 04:23:25;;;;;;;;;;;;;;;10.29;66.49;100734.38;5031298;28;19921;-79
2022/12/23 04:26:10;;;;;;;;;;;;;;;10.20;66.22;100730.81;5021055;28;19917;-79
2022/12/23 04:28:54;;;;;;;;;;;;;;;10.14;66.57;100733.94;5002440;28;19917;-80
2022/12/23 04:31:39;;;;;;;;;;;;;;;9.87;66.69;100738.41;5000856;28;19917;-79
2022/12/23 04:34:25;;;;;;;;;;;;;;;9.78;66.98;100736.75;5023787;28;19917;-80
2022/12/23 04:37:09;;;;;;;;;;;;;;;9.79;67.00;100736.44;5040139;28;19921;-80
2022/12/23 04:39:54;;;;;;;;;;;;;;;9.89;66.01;100727.25;5037430;28;19925;-80
2022/12/23 04:42:38;;;;;;;;;;;;;;;9.77;66.79;100737.84;5034113;28;19921;-79
2022/12/23 04:45:23;;;;;;;;;;;;;;;10.09;67.60;100747.66;5034252;28;19917;-80
2022/12/23 04:48:08;;;;;;;;;;;;;;;10.00;66.42;100752.22;5021946;28;19916;-81
2022/12/23 04:50:52;;;;;;;;;;;;;;;10.03;67.73;100751.59;5020494;28;19921;-80
2022/12/23 04:53:37;;;;;;;;;;;;;;;10.23;65.85;100746.47;5038695;28;19944;-79
2022/12/23 04:56:21;;;;;;;;;;;;;;;10.20;64.41;100747.13;5026420;28;20374;-79
2022/12/23 04:59:06;;;;;;;;;;;;;;;10.17;64.69;100746.91;5034620;28;19921;-78
2022/12/23 05:01:50;;;;;;;;;;;;;;;10.03;64.90;100749.69;5016344;28;19917;-79
2022/12/23 05:04:34;;;;;;;;;;;;;;;10.02;64.99;100737.22;5026622;28;19917;-79
2022/12/23 05:07:19;;;;;;;;;;;;;;;9.99;64.94;100729.69;5035663;28;20057;-79
2022/12/23 05:10:03;;;;;;;;;;;;;;;10.20;64.70;100741.69;5013498;28;19917;-77
2022/12/23 05:12:48;;;;;;;;;;;;;;;10.22;64.48;100736.72;5013757;28;20390;-76
2022/12/23 05:15:32;;;;;;;;;;;;;;;10.24;64.00;100741.84;5028931;28;20309;-77
2022/12/23 05:18:16;;;;;;;;;;;;;;;10.09;64.93;100737.59;5020721;28;20336;-78
2022/12/23 05:21:01;;;;;;;;;;;;;;;10.03;65.20;100738.81;5032186;28;19921;-77
2022/12/23 05:23:45;;;;;;;;;;;;;;;10.17;64.86;100753.16;5020145;28;19917;-78
2022/12/23 05:26:29;;;;;;;;;;;;;;;10.15;64.88;100758.09;5026548;28;20294;-76
2022/12/23 05:29:14;;;;;;;;;;;;;;;10.02;65.13;100753.50;5025706;28;20386;-76
2022/12/23 05:31:59;;;;;;;;;;;;;;;10.08;64.57;100757.72;5033188;28;19921;-77
2022/12/23 05:34:43;;;;;;;;;;;;;;;9.94;65.14;100751.56;5031691;28;19917;-78
2022/12/23 05:37:28;;;;;;;;;;;;;;;9.96;64.57;100748.50;5021711;28;19917;-79
2022/12/23 05:40:12;;;;;;;;;;;;;;;10.04;64.48;100745.06;5027807;28;19921;-78
2022/12/23 05:42:57;;;;;;;;;;;;;;;9.98;64.51;100757.16;5026099;28;19920;-79
2022/12/23 05:45:41;;;;;;;;;;;;;;;10.18;64.11;100770.25;5036666;28;20389;-79
2022/12/23 05:48:26;;;;;;;;;;;;;;;10.17;63.87;100769.47;5032767;28;19917;-78
2022/12/23 05:51:10;;;;;;;;;;;;;;;10.08;64.35;100752.28;5018527;28;19917;-78
2022/12/23 05:53:55;;;;;;;;;;;;;;;9.90;65.05;100747.06;5029560;28;19924;-79
2022/12/23 05:56:39;;;;;;;;;;;;;;;10.13;64.42;100754.84;5019854;28;19920;-77
2022/12/23 05:59:24;;;;;;;;;;;;;;;10.12;64.02;100744.28;5031532;28;20313;-77
2022/12/23 06:02:08;;;;;;;;;;;;;;;10.12;64.19;100736.94;5032854;28;19918;-79
2022/12/23 06:04:52;;;;;;;;;;;;;;;9.94;65.36;100740.69;5029052;28;19921;-80
2022/12/23 06:07:37;;;;;;;;;;;;;;;9.65;66.49;100749.25;5026254;28;19917;-79
2022/12/23 06:10:22;;;;;;;;;;;;;;;9.74;66.51;100755.56;5032196;28;19917;-80
2022/12/23 06:13:06;;;;;;;;;;;;;;;10.05;65.44;100771.13;5025332;28;19917;-80
2022/12/23 06:15:51;;;;;;;;;;;;;;;10.06;65.23;100767.25;5012777;28;19918;-79
2022/12/23 06:18:35;;;;;;;;;;;;;;;10.16;65.47;100767.84;5024618;28;20386;-80
2022/12/23 06:21:20;;;;;;;;;;;;;;;10.09;65.89;100767.47;5021557;28;19925;-80
2022/12/23 06:24:04;;;;;;;;;;;;;;;10.03;66.13;100778.75;5032425;28;19920;-80
2022/12/23 06:26:49;;;;;;;;;;;;;;;9.99;66.66;100775.88;5039012;28;20349;-80
2022/12/23 06:29:33;;;;;;;;;;;;;;;10.07;67.43;100785.97;5032874;28;19917;-79
2022/12/23 06:32:18;;;;;;;;;;;;;;;10.07;67.50;100783.25;5032607;28;20386;-80
2022/12/23 06:35:03;;;;;;;;;;;;;;;10.02;68.85;100777.97;5030270;28;19925;-79
2022/12/23 06:37:47;;;;;;;;;;;;;;;10.07;68.50;100779.75;5045072;28;19917;-78
2022/12/23 06:40:32;;;;;;;;;;;;;;;10.02;68.74;100790.75;5025163;28;19921;-78
2022/12/23 06:43:16;;;;;;;;;;;;;;;10.03;68.79;100795.88;5035915;28;19917;-78
2022/12/23 06:46:01;;;;;;;;;;;;;;;9.94;69.40;100802.34;5041285;28;19916;-78
2022/12/23 06:48:45;;;;;;;;;;;;;;;10.03;69.03;100804.03;5026676;28;19917;-78
2022/12/23 06:51:30;;;;;;;;;;;;;;;10.07;68.92;100801.47;5035905;28;19921;-79
2022/12/23 06:54:14;;;;;;;;;;;;;;;9.97;69.44;100797.09;5020383;28;19917;-79
2022/12/23 06:56:58;;;;;;;;;;;;;;;10.06;69.14;100808.81;5023091;28;19917;-79
2022/12/23 06:59:43;;;;;;;;;;;;;;;10.11;68.79;100803.25;5027334;28;19921;-78
2022/12/23 07:02:27;;;;;;;;;;;;;;;10.16;68.58;100799.66;5044189;28;19917;-78
2022/12/23 07:05:12;;;;;;;;;;;;;;;10.08;68.79;100803.91;5034829;28;19917;-79
2022/12/23 07:07:57;;;;;;;;;;;;;;;10.08;68.68;100809.34;5002404;28;20289;-79
2022/12/23 07:10:42;;;;;;;;;;;;;;;10.09;68.40;100807.41;5020169;28;19925;-79
2022/12/23 07:13:26;;;;;;;;;;;;;;;9.92;68.85;100802.66;5024657;28;19932;-78
2022/12/23 07:16:11;;;;;;;;;;;;;;;9.91;68.44;100797.53;5013020;28;20298;-79
2022/12/23 07:18:55;;;;;;;;;;;;;;;9.87;68.70;100786.47;5019316;28;19917;-77
2022/12/23 07:21:39;;;;;;;;;;;;;;;9.93;68.92;100806.97;5023291;28;19921;-78
2022/12/23 07:24:24;;;;;;;;;;;;;;;9.97;69.24;100810.69;5037230;28;20309;-80
2022/12/23 07:27:08;;;;;;;;;;;;;;;9.90;69.48;100802.19;5036220;28;19917;-78
2022/12/23 07:29:53;;;;;;;;;;;;;;;9.87;69.13;100800.06;5041694;28;19917;-78
2022/12/23 07:32:37;;;;;;;;;;;;;;;9.91;68.74;100792.09;5034003;28;19917;-79
2022/12/23 07:35:21;;;;;;;;;;;;;;;9.97;69.76;100805.25;5042556;28;19917;-78
2022/12/23 07:38:06;;;;;;;;;;;;;;;10.03;69.69;100795.88;5029522;28;19917;-77
2022/12/23 07:40:50;;;;;;;;;;;;;;;10.04;69.65;100797.47;5039740;28;20293;-78
2022/12/23 07:43:34;;;;;;;;;;;;;;;10.07;68.33;100807.72;5016940;28;19917;-79
2022/12/23 07:46:19;;;;;;;;;;;;;;;10.03;67.39;100804.03;5039653;28;20393;-78
2022/12/23 07:49:04;;;;;;;;;;;;;;;10.15;66.82;100815.16;5034876;28;20616;-80
2022/12/23 07:51:49;;;;;;;;;;;;;;;10.17;66.04;100810.22;5021455;28;19917;-81
2022/12/23 07:54:33;;;;;;;;;;;;;;;10.02;67.18;100799.69;5038670;28;19917;-78
2022/12/23 07:57:18;;;;;;;;;;;;;;;10.17;66.60;100807.50;5039526;28;19924;-78
2022/12/23 08:00:04;;;;;;;;;;;;;;;9.73;67.44;100797.41;5045003;28;19920;-79
2022/12/23 08:03:09;;;;;;;;;;;;;;;9.21;68.73;100812.41;4981541;28;19958;-81
2022/12/23 08:27:22;;;;;;;;;;;;;;;8.36;73.25;100807.56;5504338;23;20016;-85
2022/12/23 08:30:08;;;;;;;;;;;;;;;9.08;71.00;100821.38;5053822;23;19933;-81
2022/12/23 08:48:10;;;;;;;;;;;;;;;9.48;68.38;100805.31;5780013;23;19910;-85
2022/12/23 08:50:55;;;;;;;;;;;;;;;8.77;70.30;100802.19;5018070;28;19929;-80
2022/12/23 08:53:40;;;;;;;;;;;;;;;9.00;69.20;100803.88;5019446;28;19909;-79
2022/12/23 08:56:26;;;;;;;;;;;;;;;8.86;68.90;100802.28;4987324;28;19910;-85
2022/12/23 08:59:13;;;;;;;;;;;;;;;8.83;69.45;100795.56;4988401;28;19910;-84
2022/12/23 09:08:11;;;;;;;;;;;;;;;8.78;69.54;100806.50;5010650;28;19931;-82
2022/12/23 09:10:58;;;;;;;;;;;;;;;9.44;67.91;100814.09;5007341;28;19913;-81
2022/12/23 09:13:43;;;;;;;;;;;;;;;9.74;66.18;100803.66;5008665;28;19926;-80
2022/12/23 09:22:47;;;;;;;37.30;17.08;;;;;;;10.61;62.32;100816.72;4984732;28;20433;-82
2022/12/23 09:25:32;;;;;;;43.17;16.75;;;;;;;11.07;58.70;100827.91;4974047;28;20050;-80
2022/12/23 09:28:17;;;;;;;20.67;11.35;;;;;;;11.45;55.71;100830.09;4969030;28;20043;-84
2022/12/23 09:31:07;;;;;;;35.55;19.20;;;;;;;11.20;60.66;100830.84;4961637;28;20802;-76
2022/12/23 09:33:52;;;;;;;34.90;17.98;;;;;;;10.67;62.26;100824.41;4972585;28;20035;-86
2022/12/23 09:36:37;;;;;;;30.05;13.98;;;;;;;10.42;62.98;100822.34;4974368;28;20046;-87
2022/12/23 09:39:23;;;;;;;;;;;;;;;10.11;63.95;100814.13;4980389;28;20046;-86
2022/12/23 09:42:22;;;;;;;40.20;20.50;;;;;;;10.40;64.02;100799.31;4975135;28;19914;-88
2022/12/23 09:45:56;;;;;;;43.55;20.30;;;;;;;10.31;64.79;100812.84;4954992;28;20043;-86
2022/12/23 09:48:47;;;;;;;48.70;22.95;;;;;;;10.60;62.77;100817.81;4972916;28;20497;-87
2022/12/23 09:51:33;;;;;;;44.97;25.25;;;;;;;10.22;65.00;100828.31;4964135;28;20039;-88
2022/12/23 09:54:24;;;;;;;41.28;24.23;;;;;;;9.74;66.46;100833.50;4959324;28;20048;-88
2022/12/23 09:57:21;;;;;;;44.08;24.45;;;;;;;9.96;65.73;100832.72;4953760;29;22777;-86
2022/12/23 10:00:17;;;;;;;30.20;17.38;;;;;;;10.05;66.17;100830.88;4969920;28;20412;-86
2022/12/23 10:03:27;;;;;;;47.88;26.02;;;;;;;9.67;68.35;100841.28;4954987;29;20508;-86
2022/12/23 10:06:23;;;;;;;41.35;23.15;;;;;;;10.20;65.89;100855.81;4972600;28;20061;-87
2022/12/23 10:13:00;;;;;;;43.95;23.88;;;;;;;11.02;63.22;100851.78;4960090;28;20042;-87
2022/12/23 10:15:48;;;;;;;47.83;23.85;;;;;;;10.94;64.50;100844.38;4955615;28;20043;-84
2022/12/23 10:18:59;;;;;;;48.92;24.60;;;;;;;11.01;63.60;100831.91;4960855;28;20047;-87
2022/12/23 10:21:55;;;;;;;46.40;25.67;;;;;;;10.90;64.83;100836.03;4965612;28;20051;-85
2022/12/23 10:24:43;;;;;;;52.63;26.35;;;;;;;11.35;63.70;100841.28;4977295;28;20035;-82
2022/12/23 10:27:33;;;;;;;48.20;25.73;;;;;;;11.14;64.21;100819.31;4979287;28;20047;-84
2022/12/23 10:30:20;;;;;;;55.10;27.75;;;;;;;11.19;64.41;100810.19;4978690;28;20046;-84
2022/12/23 10:33:22;;;;;;;50.30;28.25;;;;;;;10.58;67.25;100817.31;4979112;28;20047;-83
2022/12/23 10:36:17;;;;;;;50.45;27.33;;;;;;;10.75;67.95;100822.84;4971140;28;20039;-85
2022/12/23 10:39:16;;;;;;;41.75;22.38;;;;;;;10.96;66.94;100810.28;4963346;28;20043;-84
2022/12/23 10:42:30;;;;;;;48.53;26.30;;;;;;;10.95;67.55;100814.13;4979024;28;20043;-85
2022/12/23 10:45:21;;;;;;;52.35;29.60;;;;;;;11.72;65.53;100818.91;4973329;28;20043;-84
2022/12/23 10:48:11;;;;;;;52.15;29.15;;;;;;;11.58;66.06;100816.31;4973594;28;20039;-85
2022/12/23 10:50:59;;;;;;;47.05;24.30;;;;;;;11.07;66.89;100811.59;4959695;28;20039;-83
2022/12/23 10:53:50;;;;;;;48.95;25.95;;;;;;;11.39;65.53;100813.09;4966877;28;20039;-87
2022/12/23 10:56:34;;;;;;;45.08;25.02;;;;;;;11.28;65.69;100803.63;4963727;28;20042;-86
2022/12/23 10:59:23;;;;;;;;;;;;;;;11.42;65.25;100796.16;4959786;28;20051;-86
2022/12/23 11:02:11;;;;;;;45.05;26.55;;;;;;;11.36;65.71;100793.91;4959525;29;19918;-87
2022/12/23 11:04:55;;;;;;;48.90;27.70;;;;;;;11.24;66.45;100796.41;4957019;29;20043;-87
2022/12/23 11:07:42;;;;;;;59.15;27.83;;;;;;;11.19;67.10;100793.84;4959279;29;20436;-87
2022/12/23 11:10:31;;;;;;;54.60;28.70;;;;;;;11.05;67.93;100794.00;4976024;28;20416;-87
2022/12/23 11:13:42;;;;;;;46.40;27.20;;;;;;;11.22;67.47;100798.69;4978754;28;20039;-87
2022/12/23 11:16:27;;;;;;;41.63;24.13;;;;;;;11.37;66.81;100790.06;4978940;28;20047;-87
2022/12/23 11:19:15;;;;;;;34.40;20.48;;;;;;;11.26;66.57;100800.44;4978754;28;20051;-87
2022/12/23 11:22:01;;;;;;;44.30;24.92;;;;;;;11.20;66.24;100796.25;4977857;28;20051;-87
2022/12/23 11:24:45;;;;;;;59.28;31.15;;;;;;;11.18;66.74;100786.81;4976858;28;20042;-87
2022/12/23 11:27:30;;;;;;;33.38;17.75;;;;;;;11.18;65.31;100781.34;4976639;28;20043;-87
2022/12/23 11:30:18;;;;;;;35.63;19.60;;;;;;;11.24;64.98;100775.44;4982077;28;20691;-87
2022/12/23 11:33:03;;;;;;;28.75;18.50;;;;;;;11.41;64.57;100774.69;4957332;29;20039;-87
2022/12/23 11:36:00;;;;;;;28.35;17.52;;;;;;;11.23;65.56;100770.31;4957939;28;20043;-87
2022/12/23 11:38:51;;;;;;;27.65;16.65;;;;;;;11.32;65.70;100760.25;4963392;28;20039;-88
2022/12/23 11:41:41;;;;;;;23.65;15.68;;;;;;;11.17;65.70;100764.25;4966310;28;20047;-87
2022/12/23 11:44:42;;;;;;;29.98;16.48;;;;;;;11.19;65.76;100756.56;4975214;28;20042;-86
2022/12/23 11:47:40;;;;;;;30.58;17.90;;;;;;;11.12;66.29;100762.47;4981946;28;20050;-87
2022/12/23 11:50:25;;;;;;;32.15;17.58;;;;;;;10.78;66.70;100753.41;4981714;28;20031;-87
2022/12/23 11:57:15;;;;;;;27.52;16.13;;;;;;;10.99;66.07;100746.28;4981763;28;20527;-87
2022/12/23 12:00:02;;;;;;;28.52;17.63;;;;;;;10.96;66.15;100736.84;4974747;28;20043;-87
2022/12/23 12:02:53;;;;;;;29.05;17.75;;;;;;;11.14;66.30;100727.56;4956892;29;20412;-87
2022/12/23 12:05:45;;;;;;;30.55;18.80;;;;;;;10.97;65.06;100713.16;4956807;29;20046;-87
2022/12/23 12:13:00;;;;;;;33.30;19.42;;;;;;;11.04;65.84;100721.63;4964628;28;20039;-87
2022/12/23 12:16:11;;;;;;;23.70;13.02;;;;;;;11.17;65.76;100725.34;4957468;28;20420;-87
2022/12/23 12:19:02;;;;;;;36.40;19.17;;;;;;;11.11;66.05;100720.06;4956419;29;20039;-87
2022/12/23 12:21:50;;;;;;;42.60;19.17;;;;;;;11.11;65.43;100711.88;4967732;28;20047;-86
2022/12/23 12:24:40;;;;;;;41.78;22.80;;;;;;;11.44;64.47;100714.13;4961946;28;20047;-87
2022/12/23 12:27:34;;;;;;;29.98;18.63;;;;;;;11.64;63.77;100705.31;4956877;29;20508;-87
2022/12/23 12:30:32;;;;;;;29.37;15.77;;;;;;;11.69;63.59;100717.94;4958224;29;20042;-87
2022/12/23 12:33:34;;;;;;;34.33;18.50;;;;;;;11.56;63.48;100719.75;4963178;28;20043;-88
2022/12/23 12:36:37;;;;;;;37.00;18.85;;;;;;;11.34;65.05;100731.59;4957875;28;20043;-87
2022/12/23 12:39:35;;;;;;;71.45;38.65;;;;;;;11.48;64.46;100715.88;4976522;28;20504;-87
2022/12/23 12:42:36;;;;;;;37.45;19.65;;;;;;;11.75;63.60;100703.88;4983993;28;20043;-89
2022/12/23 12:45:23;;;;;;;30.55;19.27;;;;;;;12.32;61.38;100685.28;4979210;28;20055;-86
2022/12/23 12:48:30;;;;;;;33.78;19.58;;;;;;;11.95;62.16;100678.66;4981769;28;20435;-87
2022/12/23 12:51:41;;;;;;;36.13;19.23;;;;;;;12.12;61.17;100672.38;4976869;28;20515;-86
2022/12/23 12:54:53;;;;;;;32.65;19.83;;;;;;;11.64;63.02;100671.81;4979664;28;20051;-86
2022/12/23 12:57:39;;;;;;;33.90;20.35;;;;;;;11.55;64.53;100682.72;4975094;28;20504;-86
2022/12/23 13:00:23;;;;;;;;;;;;;;;11.23;63.47;100688.66;4975496;28;20054;-86
2022/12/23 13:03:30;;;;;;;31.27;18.27;;;;;;;11.46;63.47;100681.94;4975395;28;19914;-87
2022/12/23 13:06:43;;;;;;;33.25;19.90;;;;;;;11.27;63.98;100681.47;4965866;28;20035;-87
2022/12/23 13:09:45;;;;;;;32.38;19.70;;;;;;;11.07;64.78;100700.00;4977811;28;20043;-86
2022/12/23 13:12:55;;;;;;;35.45;20.15;;;;;;;11.02;65.29;100702.13;4980286;28;20499;-86
2022/12/23 13:16:10;;;;;;;32.63;19.85;;;;;;;11.00;62.83;100707.88;4973176;28;20042;-87
2022/12/23 13:19:16;;;;;;;33.77;19.67;;;;;;;10.77;65.63;100717.25;4965206;28;20512;-86
2022/12/23 13:22:16;;;;;;;34.30;19.33;;;;;;;10.91;65.38;100706.25;4975570;28;20039;-86
2022/12/23 13:25:10;;;;;;;38.13;21.15;;;;;;;10.82;64.29;100702.72;5374691;23;20047;-86
2022/12/23 13:28:07;;;;;;;38.20;18.83;;;;;;;10.81;64.66;100726.41;4973755;28;20511;-86
2022/12/23 13:31:24;;;;;;;34.63;21.10;;;;;;;10.90;64.57;100734.56;4975042;28;20038;-86
2022/12/23 13:34:31;;;;;;;36.13;21.08;;;;;;;10.91;64.35;100733.47;4974545;28;20043;-86
2022/12/23 13:37:21;;;;;;;31.50;18.30;;;;;;;11.12;63.79;100726.31;4940846;28;20055;-86
2022/12/23 13:40:29;;;;;;;35.28;18.45;;;;;;;10.43;66.12;100717.94;4941285;29;20047;-86
2022/12/23 13:43:19;;;;;;;33.40;19.73;;;;;;;10.65;66.26;100714.34;4935623;29;20059;-86
2022/12/23 13:46:13;;;;;;;30.27;18.30;;;;;;;10.56;66.98;100724.41;4937472;29;20396;-86
2022/12/23 13:49:11;;;;;;;28.77;19.63;;;;;;;10.50;67.08;100718.31;4943069;29;20035;-86
2022/12/23 13:51:56;;;;;;;41.58;23.73;;;;;;;10.57;66.98;100715.91;4943231;28;20035;-86
2022/12/23 13:55:19;;;;;;;33.90;17.08;;;;;;;10.67;66.40;100720.25;4955147;28;20047;-87
2022/12/23 13:58:10;;;;;;;38.92;21.08;;;;;;;10.87;66.25;100738.72;4945912;28;20039;-86
2022/12/23 14:01:20;;;;;;;38.30;22.33;;;;;;;10.96;65.83;100742.28;4942761;28;20051;-86
2022/12/23 14:04:27;;;;;;;33.13;20.75;;;;;;;10.96;65.60;100747.72;4960204;28;20047;-86
2022/12/23 14:07:14;;;;;;;38.83;19.92;;;;;;;11.03;65.68;100734.44;4960076;28;20412;-86
2022/12/23 14:10:10;;;;;;;31.75;20.10;;;;;;;11.01;65.80;100733.97;4941429;29;20044;-86
2022/12/23 14:13:05;;;;;;;36.72;19.05;;;;;;;11.06;65.49;100731.09;4940747;29;20047;-86
2022/12/23 14:16:04;;;;;;;25.80;15.20;;;;;;;11.03;65.64;100730.91;4937305;29;20040;-86
2022/12/23 14:18:59;;;;;;;35.47;21.05;;;;;;;11.06;65.46;100735.72;4943538;28;20047;-86
2022/12/23 14:21:47;;;;;;;;;;;;;;;11.00;66.42;100740.53;4935594;29;20035;-86
2022/12/23 14:24:56;;;;;;;55.67;29.63;;;;;;;10.89;67.12;100749.28;4944828;29;19918;-86
2022/12/23 14:27:59;;;;;;;59.17;29.50;;;;;;;11.08;66.96;100756.06;4954116;28;20489;-86
2022/12/23 14:30:44;;;;;;;50.80;30.08;;;;;;;10.99;67.33;100749.78;4954416;29;20035;-86
2022/12/23 14:33:36;;;;;;;42.78;24.63;;;;;;;10.87;68.04;100746.88;4959977;28;20047;-86
2022/12/23 14:36:25;;;;;;;60.08;29.75;;;;;;;10.89;67.47;100741.94;4954933;29;20042;-86
2022/12/23 14:39:10;;;;;;;50.40;30.63;;;;;;;10.89;67.49;100749.28;4956879;28;20043;-86
2022/12/23 14:41:54;;;;;;;51.13;28.50;;;;;;;10.90;67.13;100732.66;4959621;29;20047;-86
2022/12/23 14:44:39;;;;;;;57.10;31.05;;;;;;;10.76;68.03;100731.97;4954073;29;20275;-87
2022/12/23 14:47:34;;;;;;;;;;;;;;;10.88;68.09;100734.06;4960208;29;20051;-86
2022/12/23 14:50:31;;;;;;;60.80;30.90;;;;;;;10.87;68.36;100743.38;4954375;29;19914;-86
2022/12/23 14:53:21;;;;;;;54.40;31.95;;;;;;;10.89;67.89;100743.84;4959670;29;20492;-86
2022/12/23 14:56:18;;;;;;;60.20;32.40;;;;;;;10.88;68.42;100750.41;4957519;28;20043;-86
2022/12/23 14:59:02;;;;;;;61.95;33.80;;;;;;;10.82;68.52;100752.47;4956583;29;20047;-86
2022/12/23 15:01:54;;;;;;;58.38;34.05;;;;;;;10.83;68.47;100745.09;4944213;29;20044;-86
2022/12/23 15:04:48;;;;;;;59.20;33.97;;;;;;;10.64;69.54;100738.03;4943798;29;20424;-86
2022/12/23 15:07:36;;;;;;;62.70;35.45;;;;;;;10.79;68.97;100730.53;4938554;29;20044;-86
2022/12/23 15:10:24;;;;;;;59.55;35.40;;;;;;;10.71;69.39;100737.56;4943986;29;20052;-86
2022/12/23 15:13:13;;;;;;;73.47;37.22;;;;;;;10.74;69.72;100739.66;4954935;28;20039;-86
2022/12/23 15:15:57;;;;;;;65.90;35.80;;;;;;;10.84;69.60;100717.59;4947159;29;20043;-85
2022/12/23 15:18:57;;;;;;;57.63;28.20;;;;;;;10.92;69.75;100703.19;4954876;28;20065;-85
2022/12/23 15:21:42;;;;;;;66.95;37.90;;;;;;;10.87;69.68;100700.63;4952009;28;20043;-86
2022/12/23 15:24:26;;;;;;;64.75;37.05;;;;;;;10.51;71.22;100702.78;4954301;28;20515;-86